Time;durP1;ratioP1;P1;durP2;ratioP2;P2;SDS_P1;SDS_P2;PMS_P1;PMS_P2;Temp;Humidity;BMP_temperature;BMP_pressure;BME280_temperature;BME280_humidity;BME280_pressure;Samples;Min_cycle;Max_cycle;Signal;HPM_P1;HPM_P2
2022/03/31 00:00:42;;;;;;;21.47;19.10;;;10.60;57.40;;;;;;20835;6808;118171;-67
2022/03/31 00:03:08;;;;;;;22.33;19.63;;;10.40;57.90;;;;;;20810;6808;118729;-67
2022/03/31 00:05:34;;;;;;;20.85;18.48;;;10.10;58.90;;;;;;20836;6808;117772;-68
2022/03/31 00:08:04;;;;;;;19.87;17.80;;;10.00;58.80;;;;;;20776;6808;117809;-67
2022/03/31 00:10:35;;;;;;;25.03;19.63;;;9.90;60.70;;;;;;20796;6808;117792;-68
2022/03/31 00:13:02;;;;;;;21.33;18.77;;;9.90;61.20;;;;;;20786;6806;119663;-68
2022/03/31 00:15:27;;;;;;;25.73;23.03;;;9.80;61.10;;;;;;20598;6808;307522;-68
2022/03/31 00:17:53;;;;;;;23.75;21.15;;;10.20;59.70;;;;;;20799;6808;118001;-68
2022/03/31 00:20:18;;;;;;;22.93;19.87;;;10.30;59.20;;;;;;20832;6808;117557;-68
2022/03/31 00:22:44;;;;;;;23.67;19.53;;;10.20;59.30;;;;;;20840;6808;117806;-67
2022/03/31 00:25:11;;;;;;;26.77;24.00;;;10.10;59.60;;;;;;20620;6808;308377;-67
2022/03/31 00:27:35;;;;;;;23.00;19.40;;;10.40;58.70;;;;;;20834;6808;118292;-68
2022/03/31 00:30:01;;;;;;;24.25;20.37;;;10.40;58.30;;;;;;20811;6808;117751;-67
2022/03/31 00:32:26;;;;;;;23.97;19.07;;;10.30;58.90;;;;;;20837;6808;118316;-67
2022/03/31 00:34:52;;;;;;;27.75;24.90;;;10.20;59.10;;;;;;20623;6808;328385;-67
2022/03/31 00:37:18;;;;;;;28.03;25.23;;;10.40;58.30;;;;;;20628;6808;306997;-68
2022/03/31 00:39:43;;;;;;;26.20;23.70;;;10.80;57.50;;;;;;20630;6808;277677;-68
2022/03/31 00:42:10;;;;;;;22.83;20.35;;;11.00;56.30;;;;;;20815;6808;124457;-68
2022/03/31 00:44:35;;;;;;;21.47;19.23;;;11.00;56.30;;;;;;20837;6808;117471;-68
2022/03/31 00:47:00;;;;;;;22.07;19.30;;;10.80;57.20;;;;;;20845;6808;117500;-68
2022/03/31 00:49:26;;;;;;;27.67;24.73;;;10.60;57.60;;;;;;20628;6808;307441;-68
2022/03/31 00:51:52;;;;;;;25.50;21.40;;;10.70;57.20;;;;;;20816;6808;118026;-68
2022/03/31 00:54:20;;;;;;;29.20;25.63;;;10.70;57.00;;;;;;20620;6808;277604;-67
2022/03/31 00:56:46;;;;;;;23.67;21.13;;;10.80;56.50;;;;;;20833;6808;117894;-68
2022/03/31 00:59:12;;;;;;;28.27;25.33;;;10.90;56.70;;;;;;20603;6808;311239;-67
2022/03/31 01:01:38;;;;;;;26.83;22.63;;;10.80;56.60;;;;;;20830;6808;117939;-67
2022/03/31 01:04:04;;;;;;;26.30;21.60;;;10.60;57.60;;;;;;20815;6808;118481;-68
2022/03/31 01:06:30;;;;;;;28.00;25.10;;;10.60;57.30;;;;;;20621;6808;283980;-67
2022/03/31 01:08:55;;;;;;;29.35;26.27;;;10.80;57.10;;;;;;20620;6808;277927;-67
2022/03/31 01:11:21;;;;;;;25.93;21.53;;;11.00;56.00;;;;;;20836;6808;117523;-67
2022/03/31 01:13:47;;;;;;;28.53;25.60;;;11.00;55.70;;;;;;20611;6808;307631;-67
2022/03/31 01:16:12;;;;;;;27.07;22.93;;;11.00;55.70;;;;;;20814;6808;117548;-68
2022/03/31 01:18:39;;;;;;;26.50;21.42;;;10.70;56.60;;;;;;20836;6808;117936;-68
2022/03/31 01:21:04;;;;;;;28.10;21.23;;;10.60;56.60;;;;;;20826;6808;117860;-68
2022/03/31 01:23:30;;;;;;;28.65;25.60;;;10.40;57.10;;;;;;20622;6807;306987;-68
2022/03/31 01:25:56;;;;;;;29.63;23.65;;;10.60;57.10;;;;;;20807;6808;120674;-68
2022/03/31 01:28:21;;;;;;;30.17;26.87;;;10.60;57.00;;;;;;20617;6808;306559;-68
2022/03/31 01:30:47;;;;;;;27.37;22.93;;;10.70;56.60;;;;;;20837;6808;117431;-68
2022/03/31 01:33:14;;;;;;;29.37;26.30;;;10.70;56.90;;;;;;20621;6808;307493;-68
2022/03/31 01:35:38;;;;;;;29.27;26.27;;;10.70;56.50;;;;;;20623;6808;294988;-68
2022/03/31 01:38:04;;;;;;;25.83;22.75;;;11.00;56.30;;;;;;20813;6808;117888;-68
2022/03/31 01:40:30;;;;;;;25.75;20.75;;;11.00;56.20;;;;;;20836;6808;117682;-68
2022/03/31 01:42:56;;;;;;;29.90;26.80;;;10.80;56.30;;;;;;20620;6808;316253;-68
2022/03/31 01:45:22;;;;;;;29.30;26.30;;;10.70;56.20;;;;;;20623;6808;277966;-68
2022/03/31 01:47:47;;;;;;;28.58;25.52;;;11.00;55.70;;;;;;20620;6808;280208;-68
2022/03/31 01:50:13;;;;;;;28.40;25.48;;;11.20;55.20;;;;;;20614;6808;327230;-68
2022/03/31 01:52:38;;;;;;;25.27;22.23;;;11.50;55.40;;;;;;20831;6808;124394;-68
2022/03/31 01:55:04;;;;;;;28.40;25.40;;;11.30;55.30;;;;;;20619;6808;284733;-68
2022/03/31 01:57:30;;;;;;;27.90;25.00;;;11.30;54.80;;;;;;20620;6808;277956;-68
2022/03/31 01:59:55;;;;;;;23.37;20.37;;;11.50;54.40;;;;;;20808;6808;119626;-68
2022/03/31 02:02:22;;;;;;;27.60;24.77;;;11.30;54.40;;;;;;20621;6808;307902;-68
2022/03/31 02:04:47;;;;;;;28.85;25.85;;;11.30;54.00;;;;;;20614;6808;306710;-68
2022/03/31 02:07:12;;;;;;;23.75;21.10;;;11.50;53.70;;;;;;20822;6808;117446;-68
2022/03/31 02:09:37;;;;;;;27.70;24.90;;;11.20;54.50;;;;;;20620;6808;277197;-68
2022/03/31 02:12:03;;;;;;;27.17;24.37;;;11.20;54.20;;;;;;20598;6808;307901;-68
2022/03/31 02:14:29;;;;;;;27.80;24.80;;;11.30;54.00;;;;;;20616;6808;278397;-68
2022/03/31 02:16:58;;;;;;;27.93;24.93;;;11.40;53.70;;;;;;20623;6808;280698;-68
2022/03/31 02:19:21;;;;;;;25.00;20.83;;;11.30;53.90;;;;;;20816;6808;117406;-68
2022/03/31 02:21:46;;;;;;;25.55;23.02;;;11.20;53.70;;;;;;20618;6808;287367;-68
2022/03/31 02:24:12;;;;;;;26.92;24.27;;;11.20;54.10;;;;;;20591;6808;277548;-67
2022/03/31 02:26:38;;;;;;;21.33;18.67;;;11.40;53.80;;;;;;20829;6808;118391;-68
2022/03/31 02:29:03;;;;;;;25.05;22.55;;;11.10;53.90;;;;;;20614;6808;306687;-68
2022/03/31 02:31:28;;;;;;;20.47;18.27;;;11.20;53.60;;;;;;20833;6808;117523;-68
2022/03/31 02:33:54;;;;;;;20.20;18.20;;;11.00;53.70;;;;;;20815;6808;117532;-68
2022/03/31 02:37:19;;;;;;;24.30;21.90;;;10.60;54.30;;;;;;20618;6807;311609;-68
2022/03/31 02:39:44;;;;;;;23.10;18.87;;;10.70;54.30;;;;;;20799;6808;117443;-68
2022/03/31 02:42:10;;;;;;;23.35;21.05;;;10.40;54.30;;;;;;20602;6808;307537;-68
2022/03/31 02:44:35;;;;;;;20.43;18.20;;;10.50;54.30;;;;;;20830;6808;117477;-68
2022/03/31 02:47:01;;;;;;;23.57;21.27;;;10.40;54.30;;;;;;20626;6808;280052;-68
2022/03/31 02:49:27;;;;;;;24.02;21.83;;;10.50;54.60;;;;;;20619;6808;336571;-68
2022/03/31 02:51:52;;;;;;;24.57;22.27;;;10.70;54.10;;;;;;20584;6808;283164;-68
2022/03/31 02:57:03;;;;;;;22.87;20.87;;;10.80;54.10;;;;;;20610;6808;282331;-68
2022/03/31 02:59:30;;;;;;;22.77;20.67;;;11.10;53.30;;;;;;20607;6808;307519;-67
2022/03/31 03:01:56;;;;;;;23.87;21.65;;;11.30;52.40;;;;;;20597;6808;308027;-67
2022/03/31 03:04:21;;;;;;;19.73;17.80;;;11.30;52.40;;;;;;20835;6808;117927;-67
2022/03/31 03:06:47;;;;;;;22.00;20.00;;;11.20;52.90;;;;;;20612;6808;336855;-67
2022/03/31 03:09:12;;;;;;;21.97;19.87;;;11.20;52.90;;;;;;20610;6808;320840;-67
2022/03/31 03:11:38;;;;;;;21.77;19.77;;;11.40;52.20;;;;;;20604;6808;306620;-67
2022/03/31 03:14:04;;;;;;;17.55;15.90;;;11.50;51.20;;;;;;20813;6808;118202;-67
2022/03/31 03:16:29;;;;;;;18.10;15.70;;;11.30;51.60;;;;;;20842;6808;117767;-67
2022/03/31 03:18:55;;;;;;;21.27;19.37;;;10.90;52.60;;;;;;20614;6808;321880;-69
2022/03/31 03:21:20;;;;;;;18.30;16.60;;;11.00;52.20;;;;;;20833;6808;117820;-68
2022/03/31 03:23:48;;;;;;;21.63;19.63;;;10.90;52.20;;;;;;20618;6808;309146;-72
2022/03/31 03:26:12;;;;;;;17.70;16.03;;;10.90;52.10;;;;;;20794;6808;118655;-72
2022/03/31 03:28:38;;;;;;;17.52;15.82;;;10.80;52.10;;;;;;20801;6808;117856;-72
2022/03/31 03:31:03;;;;;;;16.40;14.87;;;10.50;52.70;;;;;;20817;6808;118508;-73
2022/03/31 03:33:29;;;;;;;21.87;19.83;;;10.30;54.40;;;;;;20585;6808;335882;-72
2022/03/31 03:35:54;;;;;;;22.67;20.67;;;10.40;53.50;;;;;;20583;6808;310679;-72
2022/03/31 03:38:20;;;;;;;19.70;17.70;;;10.70;52.90;;;;;;20818;6808;118118;-74
2022/03/31 03:40:45;;;;;;;22.97;20.77;;;10.60;53.10;;;;;;20606;6808;336513;-71
2022/03/31 03:43:11;;;;;;;19.87;17.37;;;10.70;54.20;;;;;;20832;6808;117516;-71
2022/03/31 03:45:37;;;;;;;23.87;21.53;;;10.70;54.10;;;;;;20625;6808;306996;-71
2022/03/31 03:48:02;;;;;;;24.03;21.67;;;10.80;53.20;;;;;;20612;6807;278007;-74
2022/03/31 03:50:28;;;;;;;20.43;18.33;;;11.00;52.70;;;;;;20829;6808;117893;-71
2022/03/31 03:52:53;;;;;;;18.90;17.00;;;10.90;52.90;;;;;;20829;6808;118309;-71
2022/03/31 03:55:19;;;;;;;24.02;21.65;;;10.60;53.70;;;;;;20609;6808;336993;-74
2022/03/31 03:57:44;;;;;;;20.80;18.70;;;10.70;53.50;;;;;;20833;6808;117416;-72
2022/03/31 04:00:11;;;;;;;23.20;21.03;;;10.80;54.30;;;;;;20605;6808;279302;-73
2022/03/31 04:02:36;;;;;;;23.73;21.52;;;10.80;53.80;;;;;;20623;6808;341040;-72
2022/03/31 04:05:02;;;;;;;22.70;20.60;;;11.10;52.60;;;;;;20614;6808;308060;-73
2022/03/31 04:07:27;;;;;;;23.83;21.63;;;11.30;51.70;;;;;;20617;6808;336971;-73
2022/03/31 04:09:53;;;;;;;19.52;17.52;;;11.40;51.40;;;;;;20819;6808;117919;-74
2022/03/31 04:12:18;;;;;;;22.10;20.10;;;11.20;51.70;;;;;;20622;6808;337006;-74
2022/03/31 04:14:44;;;;;;;22.10;20.10;;;11.20;52.30;;;;;;20625;6808;307097;-71
2022/03/31 04:17:10;;;;;;;19.37;17.47;;;11.40;52.40;;;;;;20836;6808;117466;-71
2022/03/31 04:19:36;;;;;;;21.63;19.53;;;11.20;52.10;;;;;;20626;6808;277982;-71
2022/03/31 04:22:02;;;;;;;19.57;17.60;;;11.20;52.10;;;;;;20815;6808;117583;-75
2022/03/31 04:24:27;;;;;;;22.93;20.73;;;11.10;52.40;;;;;;20621;6808;307905;-71
2022/03/31 04:26:54;;;;;;;23.05;20.95;;;11.30;52.20;;;;;;20618;6808;341027;-73
2022/03/31 04:29:19;;;;;;;21.65;19.85;;;11.40;51.70;;;;;;20619;6808;336226;-71
2022/03/31 04:31:45;;;;;;;19.30;17.43;;;11.50;51.00;;;;;;20836;6808;122460;-71
2022/03/31 04:34:15;;;;;;;20.97;19.07;;;11.30;51.40;;;;;;20611;6808;307103;-73
2022/03/31 04:36:38;;;;;;;18.70;16.90;;;11.30;50.80;;;;;;20830;6808;118029;-71
2022/03/31 04:39:04;;;;;;;20.90;19.00;;;11.00;51.10;;;;;;20607;6808;291221;-70
2022/03/31 04:41:30;;;;;;;18.15;16.35;;;11.00;51.50;;;;;;20832;6808;117860;-71
2022/03/31 04:43:55;;;;;;;18.17;16.47;;;10.90;51.80;;;;;;20813;6808;117523;-74
2022/03/31 04:46:21;;;;;;;20.73;18.93;;;10.60;52.60;;;;;;20611;6808;336564;-74
2022/03/31 04:48:47;;;;;;;20.92;19.12;;;10.90;51.40;;;;;;20619;6808;306590;-70
2022/03/31 04:51:13;;;;;;;21.85;19.95;;;10.90;51.40;;;;;;20614;6808;325433;-71
2022/03/31 04:53:39;;;;;;;21.80;20.00;;;11.20;50.90;;;;;;20619;6808;307118;-69
2022/03/31 04:56:04;;;;;;;17.57;15.97;;;11.20;50.90;;;;;;20807;6808;148577;-71
2022/03/31 04:58:30;;;;;;;21.20;19.40;;;11.00;51.50;;;;;;20621;6807;308394;-70
2022/03/31 05:00:56;;;;;;;17.90;16.23;;;11.00;52.00;;;;;;20838;6808;117417;-73
2022/03/31 05:03:22;;;;;;;21.27;19.37;;;10.80;51.70;;;;;;20616;6808;336579;-72
2022/03/31 05:05:47;;;;;;;19.80;17.90;;;10.80;51.70;;;;;;20830;6808;117432;-75
2022/03/31 05:08:13;;;;;;;18.17;16.40;;;10.70;52.20;;;;;;20834;6808;118045;-75
2022/03/31 05:10:39;;;;;;;17.43;15.83;;;10.50;52.80;;;;;;20836;6808;117556;-70
2022/03/31 05:13:04;;;;;;;17.55;15.82;;;10.20;53.30;;;;;;20832;6808;117425;-71
2022/03/31 05:15:30;;;;;;;18.40;16.80;;;10.00;54.00;;;;;;20631;6808;278407;-71
2022/03/31 05:17:55;;;;;;;17.80;16.00;;;10.20;55.40;;;;;;20820;6808;117894;-71
2022/03/31 05:20:22;;;;;;;19.67;18.03;;;10.30;55.40;;;;;;20614;6808;277740;-72
2022/03/31 05:22:47;;;;;;;20.67;18.83;;;10.90;52.70;;;;;;20621;6808;307813;-71
2022/03/31 05:25:13;;;;;;;17.40;15.87;;;10.90;52.70;;;;;;20822;6808;117934;-69
2022/03/31 05:27:42;;;;;;;20.30;18.60;;;10.90;52.70;;;;;;20617;6808;309988;-73
2022/03/31 05:30:07;;;;;;;17.77;16.17;;;11.00;52.70;;;;;;20804;6808;117715;-76
2022/03/31 05:32:33;;;;;;;17.20;15.70;;;10.90;52.70;;;;;;20831;6808;118096;-75
2022/03/31 05:34:59;;;;;;;17.70;16.10;;;10.60;53.20;;;;;;20836;6808;118202;-73
2022/03/31 05:37:24;;;;;;;22.43;20.33;;;10.40;53.50;;;;;;20617;6808;306558;-76
2022/03/31 05:39:50;;;;;;;19.92;18.02;;;10.50;52.90;;;;;;20786;6808;121311;-72
2022/03/31 05:42:15;;;;;;;21.55;19.65;;;10.40;53.10;;;;;;20612;6808;337047;-76
2022/03/31 05:44:42;;;;;;;18.85;17.12;;;10.50;53.10;;;;;;20836;6808;117561;-71
2022/03/31 05:47:08;;;;;;;21.37;19.57;;;10.40;53.00;;;;;;20619;6808;307368;-74
2022/03/31 05:49:35;;;;;;;18.30;16.58;;;10.40;52.70;;;;;;20828;6808;118129;-74
2022/03/31 05:52:00;;;;;;;19.30;17.50;;;10.40;52.70;;;;;;20802;6808;118723;-73
2022/03/31 05:54:26;;;;;;;19.08;17.17;;;10.10;53.30;;;;;;20833;6808;118264;-75
2022/03/31 05:56:51;;;;;;;22.10;20.13;;;9.90;54.70;;;;;;20618;6808;336521;-72
2022/03/31 05:59:17;;;;;;;20.05;18.15;;;10.00;53.90;;;;;;20832;6808;117382;-73
2022/03/31 06:01:43;;;;;;;21.30;19.47;;;10.00;54.10;;;;;;20625;6808;278456;-74
2022/03/31 06:04:08;;;;;;;19.33;17.43;;;10.10;53.90;;;;;;20821;6808;123535;-76
2022/03/31 06:06:34;;;;;;;18.17;16.53;;;9.90;55.70;;;;;;20837;6808;118042;-77
2022/03/31 06:09:00;;;;;;;20.80;19.00;;;9.90;55.70;;;;;;20617;6808;342476;-74
2022/03/31 06:11:25;;;;;;;20.77;18.97;;;10.20;54.80;;;;;;20622;6807;278269;-74
2022/03/31 06:13:52;;;;;;;20.27;18.67;;;10.90;52.80;;;;;;20598;6808;334596;-73
2022/03/31 06:16:17;;;;;;;21.50;19.77;;;10.90;52.80;;;;;;20615;6808;307558;-78
2022/03/31 06:18:43;;;;;;;21.63;19.73;;;11.20;51.70;;;;;;20619;6808;306652;-76
2022/03/31 06:21:08;;;;;;;18.03;16.53;;;11.40;50.90;;;;;;20814;6808;117469;-73
2022/03/31 06:23:34;;;;;;;18.10;16.42;;;11.20;50.90;;;;;;20830;6808;117963;-75
2022/03/31 06:26:00;;;;;;;21.13;19.13;;;10.80;51.70;;;;;;20601;6808;305041;-73
2022/03/31 06:28:28;;;;;;;20.37;18.23;;;10.80;51.70;;;;;;20812;6808;124437;-74
2022/03/31 06:30:52;;;;;;;17.70;16.17;;;10.40;52.90;;;;;;20822;6808;118712;-72
2022/03/31 06:33:18;;;;;;;18.13;16.33;;;10.40;52.80;;;;;;20832;6808;117429;-79
2022/03/31 06:35:44;;;;;;;21.00;18.87;;;10.40;53.40;;;;;;20622;6808;307489;-72
2022/03/31 06:38:11;;;;;;;17.93;16.23;;;10.40;53.40;;;;;;20804;6808;122668;-76
2022/03/31 06:40:37;;;;;;;17.57;15.97;;;10.50;54.20;;;;;;20821;6808;117513;-71
2022/03/31 06:43:01;;;;;;;16.50;14.90;;;10.40;55.30;;;;;;20827;6808;117503;-71
2022/03/31 06:45:27;;;;;;;15.63;14.33;;;10.30;54.50;;;;;;20834;6808;123243;-72
2022/03/31 06:47:54;;;;;;;20.57;18.77;;;10.70;53.50;;;;;;20601;6808;277152;-72
2022/03/31 06:50:19;;;;;;;20.80;19.00;;;10.70;53.60;;;;;;20622;6808;277599;-71
2022/03/31 06:52:44;;;;;;;13.93;12.77;;;11.20;51.90;;;;;;20833;6808;117570;-71
2022/03/31 06:55:10;;;;;;;19.03;17.50;;;11.20;52.10;;;;;;20620;6808;311662;-71
2022/03/31 06:57:35;;;;;;;18.02;16.42;;;11.50;52.10;;;;;;20618;6808;307063;-72
2022/03/31 07:00:02;;;;;;;17.65;16.15;;;11.80;50.80;;;;;;20592;6808;278382;-75
2022/03/31 07:02:28;;;;;;;15.80;14.45;;;12.10;50.20;;;;;;20613;6808;336714;-74
2022/03/31 07:04:53;;;;;;;20.25;18.35;;;12.40;49.70;;;;;;20839;6808;117984;-71
2022/03/31 07:07:19;;;;;;;20.80;18.95;;;12.30;50.00;;;;;;20616;6808;306640;-70
2022/03/31 07:09:44;;;;;;;20.02;18.25;;;12.20;48.90;;;;;;20614;6808;308684;-70
2022/03/31 07:12:10;;;;;;;14.93;13.73;;;12.40;49.00;;;;;;20603;6808;277277;-70
2022/03/31 07:14:36;;;;;;;15.90;14.70;;;12.60;49.30;;;;;;20619;6808;283209;-70
2022/03/31 07:17:01;;;;;;;16.25;14.90;;;12.80;48.60;;;;;;20615;6808;336133;-70
2022/03/31 07:19:26;;;;;;;14.75;13.70;;;13.00;48.20;;;;;;20617;6808;307208;-70
2022/03/31 07:21:52;;;;;;;14.63;13.33;;;13.20;48.00;;;;;;20812;6807;117666;-69
2022/03/31 07:24:18;;;;;;;17.62;16.12;;;12.90;48.20;;;;;;20622;6808;307109;-68
2022/03/31 07:26:43;;;;;;;17.27;15.70;;;12.90;48.20;;;;;;20838;6808;118739;-68
2022/03/31 07:29:09;;;;;;;21.30;19.30;;;12.70;48.30;;;;;;20621;6808;339625;-69
2022/03/31 07:31:34;;;;;;;17.50;16.00;;;12.80;48.30;;;;;;20831;6808;119804;-70
2022/03/31 07:34:00;;;;;;;18.58;16.67;;;12.60;48.30;;;;;;20812;6808;123645;-70
2022/03/31 07:36:26;;;;;;;20.37;18.50;;;12.30;48.80;;;;;;20615;6808;311590;-69
2022/03/31 07:38:51;;;;;;;19.93;18.23;;;12.40;48.50;;;;;;20620;6808;307137;-68
2022/03/31 07:41:17;;;;;;;17.03;15.57;;;12.50;48.30;;;;;;20834;6808;117933;-75
2022/03/31 07:43:43;;;;;;;13.53;12.23;;;12.20;49.80;;;;;;20830;6808;117552;-71
2022/03/31 07:46:08;;;;;;;11.87;10.90;;;12.10;49.70;;;;;;20808;6808;119207;-70
2022/03/31 07:48:34;;;;;;;14.38;13.13;;;12.10;50.50;;;;;;20831;6808;117509;-69
2022/03/31 07:51:01;;;;;;;19.23;17.48;;;12.00;50.80;;;;;;20620;6808;336171;-71
2022/03/31 07:53:26;;;;;;;17.73;16.23;;;12.20;49.20;;;;;;20621;6808;277971;-71
2022/03/31 07:55:51;;;;;;;15.63;14.23;;;12.50;48.70;;;;;;20809;6808;117585;-70
2022/03/31 07:58:16;;;;;;;13.87;12.67;;;12.30;48.80;;;;;;20831;6808;119661;-71
2022/03/31 08:00:42;;;;;;;10.85;10.00;;;12.10;49.80;;;;;;20828;6808;117460;-70
2022/03/31 08:03:07;;;;;;;14.03;12.83;;;11.90;50.70;;;;;;20830;6808;117952;-70
2022/03/31 08:05:37;;;;;;;18.10;16.15;;;11.80;51.10;;;;;;20822;6808;117622;-70
2022/03/31 08:07:59;;;;;;;14.68;13.45;;;11.80;51.30;;;;;;20583;6808;330012;-70
2022/03/31 08:10:24;;;;;;;19.25;17.35;;;12.00;50.80;;;;;;20830;6808;117939;-70
2022/03/31 08:12:50;;;;;;;17.95;16.08;;;12.10;50.70;;;;;;20824;6808;117518;-70
2022/03/31 08:15:15;;;;;;;14.87;13.62;;;11.90;50.30;;;;;;20620;6808;319139;-70
2022/03/31 08:17:42;;;;;;;13.37;12.17;;;12.00;49.80;;;;;;20830;6808;124385;-73
2022/03/31 08:20:08;;;;;;;17.83;16.30;;;12.10;50.80;;;;;;20586;6808;403038;-73
2022/03/31 08:22:33;;;;;;;19.70;17.87;;;12.30;49.60;;;;;;20827;6808;117620;-72
2022/03/31 08:24:59;;;;;;;20.65;18.65;;;12.40;50.00;;;;;;20827;6808;117503;-74
2022/03/31 08:27:24;;;;;;;24.80;22.50;;;12.20;49.90;;;;;;20597;6808;278859;-73
2022/03/31 08:29:50;;;;;;;21.80;19.60;;;12.30;48.70;;;;;;20776;6808;117923;-74
2022/03/31 08:32:15;;;;;;;20.67;18.50;;;12.20;49.10;;;;;;20787;6808;117663;-73
2022/03/31 08:34:41;;;;;;;25.30;22.80;;;11.90;49.70;;;;;;20576;6807;345313;-76
2022/03/31 08:37:07;;;;;;;22.47;20.23;;;12.00;49.60;;;;;;20797;6808;117296;-72
2022/03/31 08:39:32;;;;;;;22.63;20.30;;;11.90;49.70;;;;;;20785;6808;117711;-73
2022/03/31 08:41:59;;;;;;;21.83;19.57;;;11.60;50.00;;;;;;20772;6808;117601;-76
2022/03/31 08:44:23;;;;;;;26.37;23.90;;;11.40;50.60;;;;;;20615;6808;323058;-74
2022/03/31 08:46:49;;;;;;;22.75;20.55;;;11.50;50.30;;;;;;20832;6808;117498;-73
2022/03/31 08:49:14;;;;;;;21.67;19.37;;;11.50;50.40;;;;;;20831;6808;117349;-77
2022/03/31 08:51:40;;;;;;;22.47;20.07;;;11.30;50.80;;;;;;20835;6808;117379;-75
2022/03/31 08:54:08;;;;;;;22.50;20.05;;;11.10;52.10;;;;;;20809;6808;117613;-74
2022/03/31 08:56:32;;;;;;;22.73;20.40;;;11.00;52.00;;;;;;20827;6808;117625;-74
2022/03/31 08:58:57;;;;;;;21.30;19.10;;;11.00;52.20;;;;;;20837;6808;117562;-74
2022/03/31 09:01:23;;;;;;;25.80;23.37;;;10.90;52.10;;;;;;20625;6808;279090;-73
2022/03/31 09:03:49;;;;;;;27.92;25.27;;;11.20;51.80;;;;;;20615;6808;278234;-74
2022/03/31 09:06:22;;;;;;;27.87;25.13;;;11.90;49.90;;;;;;20617;6808;307515;-74
2022/03/31 09:09:00;;;;;;;24.53;21.93;;;11.90;49.90;;;;;;20804;6808;117434;-75
2022/03/31 09:11:28;;;;;;;23.40;21.00;;;11.80;50.10;;;;;;20803;6808;117510;-74
2022/03/31 09:13:54;;;;;;;21.57;19.37;;;11.50;51.50;;;;;;20814;6808;117544;-74
2022/03/31 09:16:19;;;;;;;20.60;18.40;;;11.40;51.80;;;;;;20831;6808;118150;-74
2022/03/31 09:18:45;;;;;;;21.03;18.80;;;11.30;52.10;;;;;;20796;6808;117371;-74
2022/03/31 09:21:11;;;;;;;24.17;22.07;;;11.20;52.40;;;;;;20622;6808;316285;-73
2022/03/31 09:23:43;;;;;;;22.13;19.87;;;11.50;51.80;;;;;;20837;6808;117975;-74
2022/03/31 09:26:09;;;;;;;52.47;33.90;;;11.70;51.90;;;;;;20606;6808;313738;-73
2022/03/31 09:28:36;;;;;;;24.02;20.80;;;12.00;51.00;;;;;;20829;6808;117628;-72
2022/03/31 09:31:00;;;;;;;21.87;19.50;;;12.00;51.00;;;;;;20826;6808;117444;-74
2022/03/31 09:33:32;;;;;;;25.03;22.70;;;12.00;51.20;;;;;;20616;6808;334462;-75
2022/03/31 09:36:04;;;;;;;23.07;19.70;;;12.20;50.60;;;;;;20808;6808;127379;-74
2022/03/31 09:38:32;;;;;;;21.00;18.83;;;12.30;50.80;;;;;;20829;6808;118509;-75
2022/03/31 09:40:57;;;;;;;19.23;17.20;;;12.30;51.40;;;;;;20827;6808;117612;-72
2022/03/31 09:43:21;;;;;;;19.00;17.00;;;12.30;52.00;;;;;;20835;6808;117467;-74
2022/03/31 09:45:48;;;;;;;18.40;16.57;;;12.40;52.00;;;;;;20835;6807;117490;-73
2022/03/31 09:48:20;;;;;;;21.87;19.87;;;12.70;49.90;;;;;;20603;6808;282256;-72
2022/03/31 09:50:46;;;;;;;21.55;19.40;;;13.20;49.40;;;;;;20609;6808;309192;-73
2022/03/31 09:53:11;;;;;;;18.23;16.40;;;13.20;49.40;;;;;;20834;6808;121177;-72
2022/03/31 09:55:38;;;;;;;17.75;16.10;;;13.30;49.20;;;;;;20833;6808;117483;-73
2022/03/31 09:58:03;;;;;;;18.05;16.25;;;13.30;49.60;;;;;;20814;6808;141027;-72
2022/03/31 10:00:28;;;;;;;21.62;19.73;;;13.20;50.20;;;;;;20625;6808;337441;-72
2022/03/31 10:02:55;;;;;;;20.47;18.47;;;13.50;48.70;;;;;;20828;6808;117942;-72
2022/03/31 10:05:20;;;;;;;21.67;19.70;;;13.50;48.70;;;;;;20623;6808;278310;-72
2022/03/31 10:07:46;;;;;;;20.97;19.07;;;14.00;47.70;;;;;;20618;6808;335100;-73
2022/03/31 10:10:13;;;;;;;21.45;19.45;;;14.30;47.10;;;;;;20601;6808;307196;-71
2022/03/31 10:12:55;;;;;;;17.93;16.30;;;14.20;47.00;;;;;;20844;6808;117484;-72
2022/03/31 10:15:30;;;;;;;21.08;19.23;;;14.20;47.50;;;;;;20391;6808;336630;-72
2022/03/31 10:17:55;;;;;;;19.13;17.33;;;14.20;47.00;;;;;;20808;6808;117945;-72
2022/03/31 10:20:21;;;;;;;19.43;17.40;;;14.10;47.50;;;;;;20830;6808;117592;-72
2022/03/31 10:25:42;;;;;;;22.90;20.90;;;14.00;46.90;;;;;;20621;6808;290523;-73
2022/03/31 10:28:14;;;;;;;20.45;18.55;;;14.20;47.20;;;;;;20812;6808;118564;-73
2022/03/31 10:30:39;;;;;;;21.50;19.30;;;14.10;47.60;;;;;;20826;6808;118592;-74
2022/03/31 10:33:05;;;;;;;23.90;21.70;;;13.80;48.20;;;;;;20615;6808;311541;-73
2022/03/31 10:35:34;;;;;;;23.70;21.53;;;13.90;48.60;;;;;;20613;6808;324031;-75
2022/03/31 10:37:59;;;;;;;23.90;21.70;;;14.20;47.80;;;;;;20591;6808;307195;-72
2022/03/31 10:40:38;;;;;;;22.23;20.00;;;14.50;47.00;;;;;;20627;6808;122121;-74
2022/03/31 10:43:05;;;;;;;18.27;16.47;;;14.40;47.20;;;;;;20827;6808;117442;-70
2022/03/31 10:45:36;;;;;;;21.73;17.97;;;14.10;47.70;;;;;;20825;6808;118427;-72
2022/03/31 10:48:01;;;;;;;24.77;22.37;;;13.90;48.30;;;;;;20597;6808;289704;-77
2022/03/31 10:50:31;;;;;;;21.73;19.53;;;14.10;47.50;;;;;;20793;6808;117659;-74
2022/03/31 10:52:59;;;;;;;20.08;18.02;;;14.10;47.70;;;;;;20827;6808;117713;-70
2022/03/31 10:55:24;;;;;;;18.70;16.83;;;14.00;48.20;;;;;;20826;6808;117439;-72
2022/03/31 10:57:50;;;;;;;21.30;19.42;;;13.80;48.10;;;;;;20571;6807;307820;-73
2022/03/31 11:00:16;;;;;;;21.43;18.93;;;14.00;47.70;;;;;;20829;6808;117588;-73
2022/03/31 11:02:41;;;;;;;20.07;18.07;;;14.10;48.30;;;;;;20835;6808;117472;-75
2022/03/31 11:05:07;;;;;;;23.67;21.37;;;14.20;48.70;;;;;;20619;6808;277634;-74
2022/03/31 11:07:33;;;;;;;23.50;21.40;;;14.80;46.50;;;;;;20621;6808;307460;-72
2022/03/31 11:10:09;;;;;;;21.43;19.30;;;14.80;46.50;;;;;;20821;6808;117950;-75
2022/03/31 11:12:35;;;;;;;23.27;21.07;;;14.80;46.60;;;;;;20618;6808;303909;-75
2022/03/31 11:15:01;;;;;;;19.60;17.62;;;14.80;46.80;;;;;;20830;6808;117401;-80
2022/03/31 11:17:26;;;;;;;19.80;17.90;;;14.80;46.40;;;;;;20822;6808;117742;-74
2022/03/31 11:19:53;;;;;;;19.40;17.58;;;14.50;46.80;;;;;;20815;6808;121332;-74
2022/03/31 11:22:17;;;;;;;18.33;16.62;;;14.30;47.40;;;;;;20833;6808;117636;-72
2022/03/31 11:24:43;;;;;;;19.77;17.77;;;14.20;47.80;;;;;;20832;6808;117907;-76
2022/03/31 11:27:09;;;;;;;20.65;18.65;;;14.20;48.20;;;;;;20840;6808;117524;-73
2022/03/31 11:29:35;;;;;;;23.12;20.98;;;14.40;47.00;;;;;;20620;6808;312027;-73
2022/03/31 11:32:00;;;;;;;20.50;18.50;;;14.40;47.00;;;;;;20815;6808;127372;-78
2022/03/31 11:34:27;;;;;;;22.00;19.77;;;14.40;47.80;;;;;;20832;6808;118032;-77
2022/03/31 11:36:52;;;;;;;20.90;18.83;;;14.40;47.70;;;;;;20833;6808;124133;-75
2022/03/31 11:39:18;;;;;;;23.73;21.55;;;14.30;48.20;;;;;;20618;6808;278162;-73
2022/03/31 11:41:43;;;;;;;23.90;21.77;;;14.50;47.60;;;;;;20596;6808;309387;-78
2022/03/31 11:44:09;;;;;;;24.55;22.20;;;14.90;46.30;;;;;;20594;6808;284512;-72
2022/03/31 11:46:41;;;;;;;21.17;19.10;;;15.20;45.80;;;;;;20830;6808;123990;-76
2022/03/31 11:49:20;;;;;;;23.95;21.65;;;15.20;46.20;;;;;;20597;6808;318097;-72
2022/03/31 11:51:59;;;;;;;24.20;22.00;;;15.30;45.40;;;;;;20624;6808;291358;-75
2022/03/31 11:54:25;;;;;;;21.17;19.00;;;15.60;45.90;;;;;;20838;6808;117561;-72
2022/03/31 11:57:04;;;;;;;21.07;18.60;;;15.50;45.80;;;;;;20828;6808;118165;-80
2022/03/31 11:59:29;;;;;;;21.33;19.07;;;15.40;46.50;;;;;;20829;6808;121537;-78
2022/03/31 12:01:56;;;;;;;22.57;20.47;;;15.50;46.90;;;;;;20598;6808;298988;-72
2022/03/31 12:04:21;;;;;;;19.20;17.40;;;15.40;46.80;;;;;;20836;6808;125007;-77
2022/03/31 12:06:47;;;;;;;18.93;17.00;;;15.50;46.70;;;;;;20834;6808;122399;-77
2022/03/31 12:09:13;;;;;;;18.20;16.30;;;15.50;46.70;;;;;;20831;6807;117308;-78
2022/03/31 12:11:39;;;;;;;17.98;16.27;;;15.30;47.20;;;;;;20836;6808;117426;-71
2022/03/31 12:14:05;;;;;;;20.77;18.97;;;15.30;47.20;;;;;;20602;6808;286002;-70
2022/03/31 12:16:30;;;;;;;19.08;17.37;;;15.50;45.90;;;;;;20825;6808;118037;-73
2022/03/31 12:19:00;;;;;;;25.12;22.65;;;15.70;46.00;;;;;;20580;6808;336483;-70